Aeroporto :
LOGIN :

Iscrizione | Disclaimer

   EN    FR    IT 

 










Sommario :    VFR   VFR Marginale   IFR   IFR Intensivo   IFR Molto Intensivo
Visibilità : 
Base nubi : 
>= 8 km
>= 3000ft
5 / 8 km
1000 / 3000 ft
1500m / 5 km
500 / 1000 ft
800 / 1500m
200 / 500 ft
< 800m
< 200 ft
Simboli :   Temporali  Nebbia  Neve Forte  Precipitazioni Forti  Vento > 20 kt
SIGMETs :   Varie  Temporali  Ghiacco  Turbolenza  Onda orograficha  Ceneri Vulcaniche






- Altitudine del aeroporto : 13 ft
- Codice IATA : GOA


LIMJ - Genoa Cristoforo Colombo

ULTIMO METAR :
  • 200120Z 01007KT 9999 -TSRA FEW020CB SCT040 09/09 Q1021

METARs OBSOLETI :
  • 200050Z 26012KT 4000 RA SCT014 SCT045 11/10 Q1021
  • 200020Z 19009KT 9999 SCT024 SCT045 13/05 Q1021
  • 192350Z 18012KT 9999 SCT024 SCT045 13/06 Q1021
  • 192320Z 18012KT 9999 SCT024 SCT050 13/08 Q1022
  • 192250Z 18012KT 9999 FEW024 BKN045 13/08 Q1022

TAF AMD TAF LIMJ
Valido dal 20 a 01 ore il 21 a 00 ore UTC


200120Z 2001/2024 03015KT 9999 SCT025
TEMPO 2001/2004 4000 TSRA
TEMPO 2011/2017 03005KT



MetMap, La meteo Aeronautica in un colpo d'occhio ! - Copyright ORBIFLY Dicembre 2007 - Disclaimer

ORBIFLY MET'MAP TEAM :

Programmazione e sviluppo : Alexandra Zaïnal
Concezione : Baudouin d'Aumeries
Aiuto per la programmazione : Marc-Olivier Méhu
Supporto tecnico e logistico : Manuel Goepfert
Aiuto per la traduzione : Arnaldo La Scala

Contatto : metmap@orbifly.com




FONTI E CREDITI :

   NOAA